Aérodrome :
LOGIN :

S'inscrire | Disclaimer

   EN    FR    IT 

 










Légende :    VFR   VFR Marginal   IFR   IFR Intensif   IFR Très Intensif
Visi : 
Plafond : 
>= 8 km
>= 3000ft
5 à 8 km
1000 à 3000 ft
1500m à 5 km
500 à 1000 ft
800 à 1500m
200 à 500 ft
< 800m
< 200 ft
Symboles :   Orages  Brouillard  Fortes neiges  Fortes précipitations  Vent > 20 kt
SIGMETs :   Divers  Orages  Givrage  Turbulence  Onde Orograph.  Cendres Volcan.







- Altitude de l'aérodrome : 1910 ft
- Code IATA : RDZ
- Voir les cartes d'approche


LFCR - Rodez

DERNIER METAR :
  • 180630Z AUTO 15005KT CAVOK 17/13 Q1019 NOSIG

METARs EXPIRÉS :
  • 180600Z AUTO 11004KT CAVOK 16/13 Q1019 NOSIG
  • 180530Z AUTO 13005KT CAVOK 13/12 Q1019 NOSIG
  • 180500Z AUTO 13002KT CAVOK 13/12 Q1020 NOSIG
  • 180430Z AUTO 09003KT CAVOK 13/11 Q1019 NOSIG
  • 180400Z AUTO 01002KT CAVOK 14/13 Q1020 NOSIG

TAF TAF LFCR
Valide du 18 à 06h jusqu'au 19 à 06h UTC


180500Z 1806/1906 VRB03KT CAVOK
BECMG 1809/1811 31008KT
PROB30
TEMPO 1813/1816 4000 SHRA SCT030TCU
PROB30
TEMPO 1816/1822 4000 -RADZ BKN012
BECMG 1822/1824 BKN005
Pas de NOTAMs connus pour ce terrain.



MET'MAP, la Météo Aéronautique d'un coup d'oeil ! - Copyright ORBIFLY Décembre 2007 - Disclaimer

ORBIFLY MET'MAP TEAM :

Programmation & Développement : Alexandra Zaïnal
Conception & Développement : Baudouin d'Aumeries
Co-Programmation & Développement : Marc-Olivier Méhu
Soutien technique & logistique : Manuel Goepfert

Contact : metmap@orbifly.com




SOURCES & CREDITS :

   NOAA